sensor_id;sensor_type;location;lat;lon;timestamp;pressure;altitude;pressure_sealevel;temperature;humidity
11268;BME280;49397;47.474;9.416;2023-06-24T00:00:57;96312.69;;;15.49;75.09
11268;BME280;49397;47.474;9.416;2023-06-24T00:03:23;96308.19;;;15.35;76.02
11268;BME280;49397;47.474;9.416;2023-06-24T00:05:48;96302.50;;;15.37;76.85
11268;BME280;49397;47.474;9.416;2023-06-24T00:08:15;96311.22;;;15.34;76.42
11268;BME280;49397;47.474;9.416;2023-06-24T00:10:48;96301.69;;;15.28;75.81
11268;BME280;49397;47.474;9.416;2023-06-24T00:13:16;96312.31;;;15.33;75.63
11268;BME280;49397;47.474;9.416;2023-06-24T00:15:43;96308.66;;;15.29;76.07
11268;BME280;49397;47.474;9.416;2023-06-24T00:18:11;96305.31;;;15.23;75.31
11268;BME280;49397;47.474;9.416;2023-06-24T00:20:37;96307.22;;;15.14;76.12
11268;BME280;49397;47.474;9.416;2023-06-24T00:23:03;96312.25;;;15.07;77.31
11268;BME280;49397;47.474;9.416;2023-06-24T00:25:29;96307.31;;;15.01;77.91
11268;BME280;49397;47.474;9.416;2023-06-24T00:27:55;96308.13;;;15.01;77.57
11268;BME280;49397;47.474;9.416;2023-06-24T00:30:21;96305.59;;;15.05;76.55
11268;BME280;49397;47.474;9.416;2023-06-24T00:32:46;96308.56;;;14.95;77.13
11268;BME280;49397;47.474;9.416;2023-06-24T00:35:12;96311.09;;;14.91;77.42
11268;BME280;49397;47.474;9.416;2023-06-24T00:37:38;96310.97;;;14.96;76.66
11268;BME280;49397;47.474;9.416;2023-06-24T00:40:05;96306.69;;;14.95;77.08
11268;BME280;49397;47.474;9.416;2023-06-24T00:42:31;96299.25;;;15.01;76.40
11268;BME280;49397;47.474;9.416;2023-06-24T00:44:57;96297.34;;;14.93;77.11
11268;BME280;49397;47.474;9.416;2023-06-24T00:47:22;96290.81;;;14.85;78.08
11268;BME280;49397;47.474;9.416;2023-06-24T00:49:49;96294.94;;;14.82;78.41
11268;BME280;49397;47.474;9.416;2023-06-24T00:52:16;96287.81;;;14.87;78.22
11268;BME280;49397;47.474;9.416;2023-06-24T00:54:43;96287.94;;;14.81;77.80
11268;BME280;49397;47.474;9.416;2023-06-24T00:57:08;96284.00;;;14.88;77.37
11268;BME280;49397;47.474;9.416;2023-06-24T00:59:35;96286.84;;;14.82;78.18
11268;BME280;49397;47.474;9.416;2023-06-24T01:02:01;96296.13;;;14.68;78.45
11268;BME280;49397;47.474;9.416;2023-06-24T01:04:27;96298.16;;;14.62;78.26
11268;BME280;49397;47.474;9.416;2023-06-24T01:06:54;96294.66;;;14.53;79.14
11268;BME280;49397;47.474;9.416;2023-06-24T01:09:20;96289.75;;;14.55;78.57
11268;BME280;49397;47.474;9.416;2023-06-24T01:11:46;96298.25;;;14.49;78.63
11268;BME280;49397;47.474;9.416;2023-06-24T01:14:12;96292.41;;;14.47;78.53
11268;BME280;49397;47.474;9.416;2023-06-24T01:33:26;96289.44;;;14.26;79.84
11268;BME280;49397;47.474;9.416;2023-06-24T01:35:56;96289.81;;;14.11;80.72
11268;BME280;49397;47.474;9.416;2023-06-24T01:38:42;96287.88;;;14.03;80.08
11268;BME280;49397;47.474;9.416;2023-06-24T01:41:09;96291.22;;;14.08;79.92
11268;BME280;49397;47.474;9.416;2023-06-24T01:43:37;96292.63;;;14.06;79.60
11268;BME280;49397;47.474;9.416;2023-06-24T01:46:07;96283.78;;;14.05;80.28
11268;BME280;49397;47.474;9.416;2023-06-24T01:48:38;96289.47;;;14.04;80.49
11268;BME280;49397;47.474;9.416;2023-06-24T01:51:18;96288.84;;;14.07;80.18
11268;BME280;49397;47.474;9.416;2023-06-24T01:53:52;96286.78;;;14.04;79.70
11268;BME280;49397;47.474;9.416;2023-06-24T01:56:21;96287.81;;;13.94;81.08
11268;BME280;49397;47.474;9.416;2023-06-24T01:58:50;96287.81;;;13.94;81.14
11268;BME280;49397;47.474;9.416;2023-06-24T02:01:17;96284.25;;;13.85;81.69
11268;BME280;49397;47.474;9.416;2023-06-24T02:03:43;96279.88;;;13.89;81.13
11268;BME280;49397;47.474;9.416;2023-06-24T02:06:10;96285.25;;;13.89;81.78
11268;BME280;49397;47.474;9.416;2023-06-24T02:08:38;96283.22;;;13.95;81.12
11268;BME280;49397;47.474;9.416;2023-06-24T02:11:07;96273.94;;;14.01;80.57
11268;BME280;49397;47.474;9.416;2023-06-24T02:13:34;96275.66;;;13.97;80.41
11268;BME280;49397;47.474;9.416;2023-06-24T02:16:02;96275.66;;;13.97;81.06
11268;BME280;49397;47.474;9.416;2023-06-24T02:18:29;96278.03;;;13.98;80.52
11268;BME280;49397;47.474;9.416;2023-06-24T02:20:56;96273.78;;;13.97;80.30
11268;BME280;49397;47.474;9.416;2023-06-24T02:23:22;96281.88;;;14.06;80.31
11268;BME280;49397;47.474;9.416;2023-06-24T02:25:49;96289.81;;;14.11;80.22
11268;BME280;49397;47.474;9.416;2023-06-24T02:28:16;96278.59;;;14.09;79.84
11268;BME280;49397;47.474;9.416;2023-06-24T02:30:43;96282.56;;;13.89;80.64
11268;BME280;49397;47.474;9.416;2023-06-24T02:33:09;96269.59;;;13.91;80.55
11268;BME280;49397;47.474;9.416;2023-06-24T02:35:37;96276.16;;;13.99;80.22
11268;BME280;49397;47.474;9.416;2023-06-24T02:38:03;96280.53;;;13.95;80.21
11268;BME280;49397;47.474;9.416;2023-06-24T02:40:29;96268.94;;;13.86;80.97
11268;BME280;49397;47.474;9.416;2023-06-24T02:42:57;96272.81;;;13.71;81.23
11268;BME280;49397;47.474;9.416;2023-06-24T02:45:22;96272.75;;;13.62;81.76
11268;BME280;49397;47.474;9.416;2023-06-24T02:47:49;96271.94;;;13.62;81.81
11268;BME280;49397;47.474;9.416;2023-06-24T02:50:15;96268.41;;;13.53;81.75
11268;BME280;49397;47.474;9.416;2023-06-24T02:52:42;96272.75;;;13.62;81.99
11268;BME280;49397;47.474;9.416;2023-06-24T02:55:08;96272.00;;;13.48;81.84
11268;BME280;49397;47.474;9.416;2023-06-24T02:57:35;96270.97;;;13.58;82.06
11268;BME280;49397;47.474;9.416;2023-06-24T03:00:03;96265.22;;;13.73;81.51
11268;BME280;49397;47.474;9.416;2023-06-24T03:02:31;96267.47;;;13.79;80.77
11268;BME280;49397;47.474;9.416;2023-06-24T03:04:58;96278.13;;;13.85;79.61
11268;BME280;49397;47.474;9.416;2023-06-24T03:07:26;96270.97;;;13.80;79.85
11268;BME280;49397;47.474;9.416;2023-06-24T03:09:52;96276.94;;;13.77;79.71
11268;BME280;49397;47.474;9.416;2023-06-24T03:12:17;96290.88;;;13.79;80.33
11268;BME280;49397;47.474;9.416;2023-06-24T03:14:43;96293.25;;;13.81;80.83
11268;BME280;49397;47.474;9.416;2023-06-24T03:17:08;96294.06;;;13.81;80.11
11268;BME280;49397;47.474;9.416;2023-06-24T03:19:34;96294.53;;;13.83;80.28
11268;BME280;49397;47.474;9.416;2023-06-24T03:22:00;96297.78;;;13.94;80.31
11268;BME280;49397;47.474;9.416;2023-06-24T03:24:25;96294.59;;;13.92;79.40
11268;BME280;49397;47.474;9.416;2023-06-24T03:26:51;96303.25;;;13.89;79.52
11268;BME280;49397;47.474;9.416;2023-06-24T03:29:22;96302.78;;;13.87;78.43
11268;BME280;49397;47.474;9.416;2023-06-24T03:31:47;96303.88;;;13.86;79.38
11268;BME280;49397;47.474;9.416;2023-06-24T03:34:13;96299.66;;;13.93;78.29
11268;BME280;49397;47.474;9.416;2023-06-24T03:36:39;96306.63;;;13.94;78.45
11268;BME280;49397;47.474;9.416;2023-06-24T03:39:05;96311.25;;;14.02;79.31
11268;BME280;49397;47.474;9.416;2023-06-24T03:41:30;96310.19;;;14.03;79.20
11268;BME280;49397;47.474;9.416;2023-06-24T03:43:56;96312.44;;;14.10;78.33
11268;BME280;49397;47.474;9.416;2023-06-24T03:46:21;96314.69;;;14.16;77.23
11268;BME280;49397;47.474;9.416;2023-06-24T03:48:49;96316.16;;;14.22;77.59
11268;BME280;49397;47.474;9.416;2023-06-24T03:51:15;96316.31;;;14.26;77.70
11268;BME280;49397;47.474;9.416;2023-06-24T03:53:40;96310.59;;;14.19;77.70
11268;BME280;49397;47.474;9.416;2023-06-24T03:56:06;96315.97;;;14.19;79.02
11268;BME280;49397;47.474;9.416;2023-06-24T03:58:31;96311.13;;;14.07;78.83
11268;BME280;49397;47.474;9.416;2023-06-24T04:00:59;96315.47;;;14.17;78.23
11268;BME280;49397;47.474;9.416;2023-06-24T04:03:25;96314.56;;;14.21;78.67
11268;BME280;49397;47.474;9.416;2023-06-24T04:05:57;96321.09;;;14.29;77.53
11268;BME280;49397;47.474;9.416;2023-06-24T04:08:23;96318.72;;;14.05;78.80
11268;BME280;49397;47.474;9.416;2023-06-24T04:10:55;96318.84;;;14.00;79.42
11268;BME280;49397;47.474;9.416;2023-06-24T04:13:20;96317.91;;;14.05;78.80
11268;BME280;49397;47.474;9.416;2023-06-24T04:15:46;96327.94;;;14.13;78.85
11268;BME280;49397;47.474;9.416;2023-06-24T04:18:11;96318.97;;;13.95;79.56
11268;BME280;49397;47.474;9.416;2023-06-24T04:20:37;96324.66;;;13.94;79.94
11268;BME280;49397;47.474;9.416;2023-06-24T04:23:03;96327.16;;;13.90;79.75
11268;BME280;49397;47.474;9.416;2023-06-24T04:25:29;96328.06;;;13.86;80.71
11268;BME280;49397;47.474;9.416;2023-06-24T04:27:54;96332.53;;;13.90;81.04
11268;BME280;49397;47.474;9.416;2023-06-24T04:30:20;96331.78;;;13.98;80.23
11268;BME280;49397;47.474;9.416;2023-06-24T04:32:45;96333.75;;;14.06;79.54
11268;BME280;49397;47.474;9.416;2023-06-24T04:35:11;96334.03;;;13.83;80.20
11268;BME280;49397;47.474;9.416;2023-06-24T04:37:36;96349.31;;;13.96;79.88
11268;BME280;49397;47.474;9.416;2023-06-24T04:40:02;96351.75;;;14.06;79.49
11268;BME280;49397;47.474;9.416;2023-06-24T04:42:28;96352.44;;;14.11;79.78
11268;BME280;49397;47.474;9.416;2023-06-24T04:44:53;96347.56;;;14.13;79.65
11268;BME280;49397;47.474;9.416;2023-06-24T04:47:19;96352.84;;;14.27;78.65
11268;BME280;49397;47.474;9.416;2023-06-24T04:49:45;96356.91;;;14.38;78.45
11268;BME280;49397;47.474;9.416;2023-06-24T04:52:11;96357.75;;;14.47;78.58
11268;BME280;49397;47.474;9.416;2023-06-24T04:54:37;96352.56;;;14.51;78.86
11268;BME280;49397;47.474;9.416;2023-06-24T04:57:08;96363.78;;;14.53;78.64
11268;BME280;49397;47.474;9.416;2023-06-24T04:59:33;96367.59;;;14.52;79.12
11268;BME280;49397;47.474;9.416;2023-06-24T05:01:59;96367.63;;;14.60;77.90
11268;BME280;49397;47.474;9.416;2023-06-24T05:04:24;96370.34;;;14.38;77.97
11268;BME280;49397;47.474;9.416;2023-06-24T05:06:49;96368.47;;;14.39;78.64
11268;BME280;49397;47.474;9.416;2023-06-24T05:09:15;96360.06;;;14.40;78.34
11268;BME280;49397;47.474;9.416;2023-06-24T05:11:41;96359.81;;;14.50;78.98
11268;BME280;49397;47.474;9.416;2023-06-24T05:14:06;96361.53;;;14.46;78.31
11268;BME280;49397;47.474;9.416;2023-06-24T05:16:32;96366.72;;;14.43;79.13
11268;BME280;49397;47.474;9.416;2023-06-24T05:18:57;96376.00;;;14.59;78.38
11268;BME280;49397;47.474;9.416;2023-06-24T05:21:23;96379.38;;;14.64;77.59
11268;BME280;49397;47.474;9.416;2023-06-24T05:23:48;96382.47;;;14.80;77.54
11268;BME280;49397;47.474;9.416;2023-06-24T05:26:14;96385.34;;;14.83;77.80
11268;BME280;49397;47.474;9.416;2023-06-24T05:28:39;96374.97;;;15.08;76.25
11268;BME280;49397;47.474;9.416;2023-06-24T05:31:05;96371.72;;;15.28;77.14
11268;BME280;49397;47.474;9.416;2023-06-24T05:33:31;96364.19;;;15.56;77.87
11268;BME280;49397;47.474;9.416;2023-06-24T05:35:56;96378.75;;;15.55;77.66
11268;BME280;49397;47.474;9.416;2023-06-24T05:38:22;96376.91;;;15.72;76.30
11268;BME280;49397;47.474;9.416;2023-06-24T05:40:47;96375.47;;;15.83;75.00
11268;BME280;49397;47.474;9.416;2023-06-24T05:43:13;96372.13;;;15.86;75.37
11268;BME280;49397;47.474;9.416;2023-06-24T05:45:38;96381.81;;;15.96;74.47
11268;BME280;49397;47.474;9.416;2023-06-24T05:48:04;96375.97;;;16.11;74.51
11268;BME280;49397;47.474;9.416;2023-06-24T05:50:29;96369.75;;;16.28;74.86
11268;BME280;49397;47.474;9.416;2023-06-24T05:52:55;96374.34;;;16.36;74.27
11268;BME280;49397;47.474;9.416;2023-06-24T05:55:20;96371.31;;;16.55;75.11
11268;BME280;49397;47.474;9.416;2023-06-24T05:57:46;96375.25;;;16.66;75.10
11268;BME280;49397;47.474;9.416;2023-06-24T06:00:12;96371.41;;;16.84;73.97
11268;BME280;49397;47.474;9.416;2023-06-24T06:02:37;96367.56;;;16.93;73.00
11268;BME280;49397;47.474;9.416;2023-06-24T06:05:03;96365.97;;;16.92;74.77
11268;BME280;49397;47.474;9.416;2023-06-24T06:07:28;96364.03;;;17.02;73.45
11268;BME280;49397;47.474;9.416;2023-06-24T06:09:54;96368.50;;;17.27;73.14
11268;BME280;49397;47.474;9.416;2023-06-24T06:12:21;96366.66;;;17.48;72.25
11268;BME280;49397;47.474;9.416;2023-06-24T06:14:46;96361.97;;;17.66;71.39
11268;BME280;49397;47.474;9.416;2023-06-24T06:17:13;96365.66;;;17.61;70.92
11268;BME280;49397;47.474;9.416;2023-06-24T06:19:39;96360.75;;;17.55;71.87
11268;BME280;49397;47.474;9.416;2023-06-24T06:22:07;96369.38;;;17.48;72.10
11268;BME280;49397;47.474;9.416;2023-06-24T06:24:32;96372.47;;;17.29;72.53
11268;BME280;49397;47.474;9.416;2023-06-24T06:26:57;96365.47;;;17.66;71.97
11268;BME280;49397;47.474;9.416;2023-06-24T06:29:24;96366.00;;;18.01;72.23
11268;BME280;49397;47.474;9.416;2023-06-24T06:31:49;96365.09;;;18.30;70.78
11268;BME280;49397;47.474;9.416;2023-06-24T06:34:14;96364.66;;;18.07;70.44
11268;BME280;49397;47.474;9.416;2023-06-24T06:36:40;96362.91;;;18.11;70.08
11268;BME280;49397;47.474;9.416;2023-06-24T06:39:05;96373.50;;;18.16;70.69
11268;BME280;49397;47.474;9.416;2023-06-24T06:41:31;96371.69;;;18.08;72.39
11268;BME280;49397;47.474;9.416;2023-06-24T06:43:56;96371.00;;;18.11;72.20
11268;BME280;49397;47.474;9.416;2023-06-24T06:46:22;96362.41;;;18.30;71.27
11268;BME280;49397;47.474;9.416;2023-06-24T06:48:47;96369.94;;;18.24;71.76
11268;BME280;49397;47.474;9.416;2023-06-24T06:51:13;96367.69;;;18.26;71.03
11268;BME280;49397;47.474;9.416;2023-06-24T06:53:38;96374.47;;;18.32;71.53
11268;BME280;49397;47.474;9.416;2023-06-24T06:56:04;96368.84;;;18.58;70.49
11268;BME280;49397;47.474;9.416;2023-06-24T06:58:30;96372.22;;;19.00;70.72
11268;BME280;49397;47.474;9.416;2023-06-24T07:00:55;96359.56;;;19.04;67.03
11268;BME280;49397;47.474;9.416;2023-06-24T07:03:21;96364.44;;;19.35;68.17
11268;BME280;49397;47.474;9.416;2023-06-24T07:05:47;96355.44;;;19.43;66.04
11268;BME280;49397;47.474;9.416;2023-06-24T07:08:12;96349.59;;;20.21;63.96
11268;BME280;49397;47.474;9.416;2023-06-24T07:10:38;96354.47;;;19.75;63.08
11268;BME280;49397;47.474;9.416;2023-06-24T07:13:03;96354.84;;;19.13;63.09
11268;BME280;49397;47.474;9.416;2023-06-24T07:15:29;96350.09;;;18.98;64.76
11268;BME280;49397;47.474;9.416;2023-06-24T07:17:54;96348.81;;;18.83;64.90
11268;BME280;49397;47.474;9.416;2023-06-24T07:20:21;96346.22;;;18.75;65.56
11268;BME280;49397;47.474;9.416;2023-06-24T07:22:47;96337.47;;;18.57;66.88
11268;BME280;49397;47.474;9.416;2023-06-24T07:25:12;96334.31;;;18.55;67.49
11268;BME280;49397;47.474;9.416;2023-06-24T07:27:38;96338.88;;;18.75;67.58
11268;BME280;49397;47.474;9.416;2023-06-24T07:30:04;96336.88;;;18.96;67.60
11268;BME280;49397;47.474;9.416;2023-06-24T07:32:30;96335.75;;;18.97;66.19
11268;BME280;49397;47.474;9.416;2023-06-24T07:34:56;96329.88;;;19.20;66.16
11268;BME280;49397;47.474;9.416;2023-06-24T07:37:22;96330.44;;;19.25;65.75
11268;BME280;49397;47.474;9.416;2023-06-24T07:39:47;96328.88;;;19.48;65.42
11268;BME280;49397;47.474;9.416;2023-06-24T07:42:13;96321.16;;;20.02;64.38
11268;BME280;49397;47.474;9.416;2023-06-24T07:44:45;96314.50;;;20.55;60.29
11268;BME280;49397;47.474;9.416;2023-06-24T07:47:10;96316.41;;;20.55;57.48
11268;BME280;49397;47.474;9.416;2023-06-24T07:49:36;96323.03;;;20.85;58.52
11268;BME280;49397;47.474;9.416;2023-06-24T07:52:01;96314.78;;;20.97;58.35
11268;BME280;49397;47.474;9.416;2023-06-24T07:54:27;96319.34;;;20.78;59.93
11268;BME280;49397;47.474;9.416;2023-06-24T07:56:53;96315.69;;;20.42;60.91
11268;BME280;49397;47.474;9.416;2023-06-24T07:59:18;96328.88;;;20.56;60.13
11268;BME280;49397;47.474;9.416;2023-06-24T08:01:43;96321.00;;;20.67;61.00
11268;BME280;49397;47.474;9.416;2023-06-24T08:04:09;96324.88;;;20.97;58.81
11268;BME280;49397;47.474;9.416;2023-06-24T08:06:34;96319.53;;;21.00;58.98
11268;BME280;49397;47.474;9.416;2023-06-24T08:09:00;96318.91;;;21.07;59.50
11268;BME280;49397;47.474;9.416;2023-06-24T08:11:25;96314.19;;;21.04;58.47
11268;BME280;49397;47.474;9.416;2023-06-24T08:13:51;96319.81;;;21.11;58.44
11268;BME280;49397;47.474;9.416;2023-06-24T08:16:17;96332.78;;;21.18;59.70
11268;BME280;49397;47.474;9.416;2023-06-24T08:18:43;96327.09;;;21.23;58.81
11268;BME280;49397;47.474;9.416;2023-06-24T08:21:09;96325.53;;;21.22;58.82
11268;BME280;49397;47.474;9.416;2023-06-24T08:23:34;96323.66;;;21.26;60.45
11268;BME280;49397;47.474;9.416;2023-06-24T08:26:00;96327.94;;;21.42;59.90
11268;BME280;49397;47.474;9.416;2023-06-24T08:28:25;96325.72;;;21.48;58.64
11268;BME280;49397;47.474;9.416;2023-06-24T08:30:51;96321.47;;;21.31;58.90
11268;BME280;49397;47.474;9.416;2023-06-24T08:33:16;96318.84;;;21.19;58.10
11268;BME280;49397;47.474;9.416;2023-06-24T08:35:42;96314.03;;;21.28;59.54
11268;BME280;49397;47.474;9.416;2023-06-24T08:38:07;96313.47;;;21.38;58.73
11268;BME280;49397;47.474;9.416;2023-06-24T08:40:32;96313.38;;;21.50;58.31
11268;BME280;49397;47.474;9.416;2023-06-24T08:42:59;96314.00;;;21.44;57.60
11268;BME280;49397;47.474;9.416;2023-06-24T08:45:24;96312.22;;;21.51;58.70
11268;BME280;49397;47.474;9.416;2023-06-24T08:47:50;96307.88;;;21.66;58.16
11268;BME280;49397;47.474;9.416;2023-06-24T08:50:16;96308.34;;;21.52;57.92
11268;BME280;49397;47.474;9.416;2023-06-24T08:52:49;96309.16;;;21.53;57.62
11268;BME280;49397;47.474;9.416;2023-06-24T08:55:16;96309.13;;;21.88;57.18
11268;BME280;49397;47.474;9.416;2023-06-24T08:57:42;96305.19;;;21.85;56.24
11268;BME280;49397;47.474;9.416;2023-06-24T09:00:08;96302.28;;;21.94;57.20
11268;BME280;49397;47.474;9.416;2023-06-24T09:02:37;96315.09;;;21.93;55.43
11268;BME280;49397;47.474;9.416;2023-06-24T09:05:07;96311.34;;;21.82;55.35
11268;BME280;49397;47.474;9.416;2023-06-24T09:07:33;96314.91;;;21.86;58.45
11268;BME280;49397;47.474;9.416;2023-06-24T09:09:58;96308.72;;;22.05;55.24
11268;BME280;49397;47.474;9.416;2023-06-24T09:12:26;96311.81;;;22.03;55.73
11268;BME280;49397;47.474;9.416;2023-06-24T09:14:52;96302.97;;;22.29;55.52
11268;BME280;49397;47.474;9.416;2023-06-24T09:17:18;96306.84;;;22.09;52.99
11268;BME280;49397;47.474;9.416;2023-06-24T09:19:48;96301.84;;;21.92;53.82
11268;BME280;49397;47.474;9.416;2023-06-24T09:22:13;96299.91;;;22.11;53.30
11268;BME280;49397;47.474;9.416;2023-06-24T09:24:43;96294.81;;;22.29;53.08
11268;BME280;49397;47.474;9.416;2023-06-24T09:27:14;96295.66;;;22.52;52.74
11268;BME280;49397;47.474;9.416;2023-06-24T09:29:40;96288.00;;;22.61;51.98
11268;BME280;49397;47.474;9.416;2023-06-24T09:32:07;96297.75;;;22.62;51.69
11268;BME280;49397;47.474;9.416;2023-06-24T09:34:33;96292.78;;;22.87;51.74
11268;BME280;49397;47.474;9.416;2023-06-24T09:36:59;96281.09;;;22.87;50.16
11268;BME280;49397;47.474;9.416;2023-06-24T09:39:26;96286.06;;;22.81;49.33
11268;BME280;49397;47.474;9.416;2023-06-24T09:41:59;96283.22;;;22.55;49.33
11268;BME280;49397;47.474;9.416;2023-06-24T09:44:26;96281.28;;;23.01;49.91
11268;BME280;49397;47.474;9.416;2023-06-24T09:46:52;96280.91;;;23.25;49.89
11268;BME280;49397;47.474;9.416;2023-06-24T09:49:18;96272.59;;;23.67;49.30
11268;BME280;49397;47.474;9.416;2023-06-24T09:51:46;96263.25;;;23.71;49.63
11268;BME280;49397;47.474;9.416;2023-06-24T09:54:14;96273.41;;;23.71;49.37
11268;BME280;49397;47.474;9.416;2023-06-24T09:56:45;96278.78;;;23.64;48.04
11268;BME280;49397;47.474;9.416;2023-06-24T09:59:12;96279.31;;;23.47;48.00
11268;BME280;49397;47.474;9.416;2023-06-24T10:01:39;96264.84;;;23.73;48.37
11268;BME280;49397;47.474;9.416;2023-06-24T10:04:07;96262.56;;;23.78;47.02
11268;BME280;49397;47.474;9.416;2023-06-24T10:06:34;96257.50;;;23.77;48.09
11268;BME280;49397;47.474;9.416;2023-06-24T10:09:00;96259.75;;;23.71;45.52
11268;BME280;49397;47.474;9.416;2023-06-24T10:11:26;96255.13;;;23.75;46.42
11268;BME280;49397;47.474;9.416;2023-06-24T10:13:52;96249.56;;;23.98;46.11
11268;BME280;49397;47.474;9.416;2023-06-24T10:16:19;96247.88;;;23.86;47.48
11268;BME280;49397;47.474;9.416;2023-06-24T10:18:45;96252.38;;;24.05;45.75
11268;BME280;49397;47.474;9.416;2023-06-24T10:21:11;96244.34;;;24.19;46.56
11268;BME280;49397;47.474;9.416;2023-06-24T10:23:40;96246.38;;;24.26;45.15
11268;BME280;49397;47.474;9.416;2023-06-24T10:26:10;96242.97;;;24.36;43.81
11268;BME280;49397;47.474;9.416;2023-06-24T10:36:58;96226.00;;;24.56;40.56
11268;BME280;49397;47.474;9.416;2023-06-24T10:39:48;96224.44;;;24.99;41.85
11268;BME280;49397;47.474;9.416;2023-06-24T10:42:39;96226.59;;;25.34;39.67
11268;BME280;49397;47.474;9.416;2023-06-24T10:47:33;96215.91;;;25.11;38.83
11268;BME280;49397;47.474;9.416;2023-06-24T10:49:59;96215.88;;;25.04;38.72
11268;BME280;49397;47.474;9.416;2023-06-24T10:52:24;96208.84;;;25.03;39.24
11268;BME280;49397;47.474;9.416;2023-06-24T10:54:51;96208.31;;;24.87;39.11
11268;BME280;49397;47.474;9.416;2023-06-24T10:57:22;96203.09;;;25.22;41.34
11268;BME280;49397;47.474;9.416;2023-06-24T10:59:49;96205.94;;;25.44;40.45
11268;BME280;49397;47.474;9.416;2023-06-24T11:02:16;96201.75;;;25.57;37.81
11268;BME280;49397;47.474;9.416;2023-06-24T11:04:53;96204.25;;;25.97;38.69
11268;BME280;49397;47.474;9.416;2023-06-24T11:07:24;96192.13;;;26.02;40.06
11268;BME280;49397;47.474;9.416;2023-06-24T11:09:51;96187.00;;;25.90;38.65
11268;BME280;49397;47.474;9.416;2023-06-24T11:12:18;96195.69;;;26.06;40.03
11268;BME280;49397;47.474;9.416;2023-06-24T11:14:43;96180.06;;;26.24;38.03
11268;BME280;49397;47.474;9.416;2023-06-24T11:17:09;96183.22;;;26.33;38.42
11268;BME280;49397;47.474;9.416;2023-06-24T11:19:35;96184.03;;;26.55;38.96
11268;BME280;49397;47.474;9.416;2023-06-24T11:22:05;96182.44;;;26.25;37.74
11268;BME280;49397;47.474;9.416;2023-06-24T11:24:32;96169.91;;;26.42;37.55
11268;BME280;49397;47.474;9.416;2023-06-24T11:26:57;96173.06;;;26.55;37.04
11268;BME280;49397;47.474;9.416;2023-06-24T11:29:23;96176.19;;;26.46;37.22
11268;BME280;49397;47.474;9.416;2023-06-24T11:31:50;96167.56;;;27.11;40.12
11268;BME280;49397;47.474;9.416;2023-06-24T11:34:15;96168.38;;;27.08;37.54
11268;BME280;49397;47.474;9.416;2023-06-24T11:36:41;96163.25;;;26.75;38.65
11268;BME280;49397;47.474;9.416;2023-06-24T11:39:06;96156.19;;;26.77;35.87
11268;BME280;49397;47.474;9.416;2023-06-24T11:41:32;96158.97;;;26.95;35.62
11268;BME280;49397;47.474;9.416;2023-06-24T11:43:58;96153.91;;;26.83;34.71
11268;BME280;49397;47.474;9.416;2023-06-24T11:46:27;96149.56;;;26.82;36.70
11268;BME280;49397;47.474;9.416;2023-06-24T11:49:03;96152.66;;;27.12;36.51
11268;BME280;49397;47.474;9.416;2023-06-24T11:51:29;96149.44;;;27.53;37.40
11268;BME280;49397;47.474;9.416;2023-06-24T11:53:59;96144.66;;;27.64;36.27
11268;BME280;49397;47.474;9.416;2023-06-24T11:56:40;96134.88;;;27.63;35.00
11268;BME280;49397;47.474;9.416;2023-06-24T11:59:07;96133.16;;;27.90;36.94
11268;BME280;49397;47.474;9.416;2023-06-24T12:01:42;96137.19;;;27.68;36.60
11268;BME280;49397;47.474;9.416;2023-06-24T12:04:14;96131.69;;;27.71;34.87
11268;BME280;49397;47.474;9.416;2023-06-24T12:06:41;96124.94;;;27.83;35.66
11268;BME280;49397;47.474;9.416;2023-06-24T12:09:10;96134.78;;;27.84;34.88
11268;BME280;49397;47.474;9.416;2023-06-24T12:11:36;96125.53;;;28.22;36.83
11268;BME280;49397;47.474;9.416;2023-06-24T12:14:02;96126.28;;;28.26;36.33
11268;BME280;49397;47.474;9.416;2023-06-24T12:16:29;96131.66;;;27.78;35.39
11268;BME280;49397;47.474;9.416;2023-06-24T12:18:55;96131.03;;;28.22;35.51
11268;BME280;49397;47.474;9.416;2023-06-24T12:21:20;96123.53;;;28.26;35.90
11268;BME280;49397;47.474;9.416;2023-06-24T12:23:46;96118.84;;;28.23;38.58
11268;BME280;49397;47.474;9.416;2023-06-24T12:26:12;96120.06;;;28.15;33.79
11268;BME280;49397;47.474;9.416;2023-06-24T12:28:38;96125.56;;;28.15;35.71
11268;BME280;49397;47.474;9.416;2023-06-24T12:31:03;96120.66;;;27.82;36.44
11268;BME280;49397;47.474;9.416;2023-06-24T12:33:29;96119.56;;;27.62;35.61
11268;BME280;49397;47.474;9.416;2023-06-24T12:35:55;96114.03;;;27.76;34.51
11268;BME280;49397;47.474;9.416;2023-06-24T12:38:20;96118.81;;;27.58;34.73
11268;BME280;49397;47.474;9.416;2023-06-24T12:40:46;96114.06;;;27.69;36.00
11268;BME280;49397;47.474;9.416;2023-06-24T12:43:13;96111.38;;;27.55;33.83
11268;BME280;49397;47.474;9.416;2023-06-24T12:45:40;96116.47;;;27.53;36.27
11268;BME280;49397;47.474;9.416;2023-06-24T12:48:09;96102.69;;;27.63;35.80
11268;BME280;49397;47.474;9.416;2023-06-24T12:50:34;96101.47;;;27.71;38.91
11268;BME280;49397;47.474;9.416;2023-06-24T12:53:00;96107.91;;;27.33;33.35
11268;BME280;49397;47.474;9.416;2023-06-24T12:55:27;96104.34;;;27.47;34.99
11268;BME280;49397;47.474;9.416;2023-06-24T12:57:52;96105.94;;;27.37;37.71
11268;BME280;49397;47.474;9.416;2023-06-24T13:00:21;96100.09;;;27.24;35.42
11268;BME280;49397;47.474;9.416;2023-06-24T13:02:48;96101.59;;;27.36;35.95
11268;BME280;49397;47.474;9.416;2023-06-24T13:05:14;96096.94;;;27.29;36.42
11268;BME280;49397;47.474;9.416;2023-06-24T13:07:40;96091.69;;;27.63;35.59
11268;BME280;49397;47.474;9.416;2023-06-24T13:10:06;96094.69;;;27.90;37.23
11268;BME280;49397;47.474;9.416;2023-06-24T13:12:32;96089.28;;;27.76;34.86
11268;BME280;49397;47.474;9.416;2023-06-24T13:14:58;96088.56;;;27.61;34.94
11268;BME280;49397;47.474;9.416;2023-06-24T13:17:23;96078.81;;;27.57;34.98
11268;BME280;49397;47.474;9.416;2023-06-24T13:19:50;96085.84;;;27.54;36.81
11268;BME280;49397;47.474;9.416;2023-06-24T13:22:16;96083.41;;;27.70;36.02
11268;BME280;49397;47.474;9.416;2023-06-24T13:24:41;96083.22;;;27.19;35.05